createdAt,value
2019-02-08T00:00:23.430Z,32.08
2019-02-08T00:01:28.681Z,30.75
2019-02-08T00:02:32.586Z,29.60
2019-02-08T00:03:36.571Z,31.05
2019-02-08T00:04:40.539Z,27.87
2019-02-08T00:05:44.958Z,27.85
2019-02-08T00:06:48.943Z,27.42
2019-02-08T00:07:53.012Z,31.40
2019-02-08T00:08:57.006Z,28.80
2019-02-08T00:10:00.963Z,26.33
2019-02-08T00:11:05.578Z,26.40
2019-02-08T00:12:09.721Z,28.02
2019-02-08T00:13:13.930Z,27.87
2019-02-08T00:14:17.903Z,27.15
2019-02-08T00:15:22.283Z,26.62
2019-02-08T00:16:26.363Z,26.82
2019-02-08T00:17:30.258Z,28.62
2019-02-08T00:18:34.228Z,26.30
2019-02-08T00:19:38.580Z,26.00
2019-02-08T00:20:42.546Z,28.05
2019-02-08T00:21:46.722Z,26.52
2019-02-08T00:22:50.707Z,27.80
2019-02-08T00:23:54.843Z,23.35
2019-02-08T00:24:58.994Z,27.90
2019-02-08T00:26:03.202Z,28.00
2019-02-08T00:27:07.205Z,27.05
2019-02-08T00:28:11.154Z,30.37
2019-02-08T00:29:15.122Z,27.62
2019-02-08T00:30:21.015Z,30.15
2019-02-08T00:31:25.142Z,32.35
2019-02-08T00:32:29.133Z,31.40
2019-02-08T00:33:33.262Z,27.42
2019-02-08T00:34:37.433Z,29.85
2019-02-08T00:35:41.579Z,25.97
2019-02-08T00:36:46.064Z,32.25
2019-02-08T00:37:50.378Z,31.97
2019-02-08T00:38:54.591Z,31.33
2019-02-08T00:39:58.509Z,28.92
2019-02-08T00:41:02.465Z,30.92
2019-02-08T00:42:06.702Z,29.52
2019-02-08T00:43:11.159Z,32.70
2019-02-08T00:44:14.996Z,31.80
2019-02-08T00:45:19.339Z,31.30
2019-02-08T00:46:23.235Z,31.65
2019-02-08T00:47:27.391Z,32.53
2019-02-08T00:48:31.787Z,28.17
2019-02-08T00:49:36.231Z,31.62
2019-02-08T00:50:40.627Z,29.72
2019-02-08T00:51:44.603Z,23.18
2019-02-08T00:52:48.843Z,30.17
2019-02-08T00:53:52.816Z,31.30
2019-02-08T00:54:56.969Z,27.52
2019-02-08T00:56:01.688Z,27.48
2019-02-08T00:57:05.939Z,27.58
2019-02-08T00:58:10.092Z,31.27
2019-02-08T00:59:14.236Z,31.05
2019-02-08T01:00:19.054Z,29.57
2019-02-08T01:01:25.792Z,31.55
2019-02-08T01:02:29.777Z,23.80
2019-02-08T01:03:33.745Z,24.20
2019-02-08T01:04:37.995Z,29.35
2019-02-08T01:05:42.730Z,30.00
2019-02-08T01:06:46.944Z,27.22
2019-02-08T01:07:51.343Z,30.40
2019-02-08T01:08:55.317Z,31.33
2019-02-08T01:09:59.533Z,25.00
2019-02-08T01:11:03.670Z,25.82
2019-02-08T01:12:07.888Z,25.17
2019-02-08T01:13:12.131Z,29.30
2019-02-08T01:14:16.109Z,28.20
2019-02-08T01:15:20.707Z,18.12
2019-02-08T01:16:24.944Z,28.15
2019-02-08T01:17:29.013Z,25.27
2019-02-08T01:18:33.184Z,27.22
2019-02-08T01:19:37.514Z,26.35
2019-02-08T01:20:41.999Z,22.82
2019-02-08T01:21:46.237Z,22.95
2019-02-08T01:22:50.598Z,24.70
2019-02-08T01:23:54.737Z,23.22
2019-02-08T01:24:58.960Z,26.48
2019-02-08T01:26:02.926Z,25.52
2019-02-08T01:27:06.822Z,23.42
2019-02-08T01:28:11.052Z,26.52
2019-02-08T01:29:15.019Z,26.17
2019-02-08T01:30:26.609Z,28.15
2019-02-08T01:31:30.578Z,26.80
2019-02-08T01:32:34.478Z,25.15
2019-02-08T01:33:38.462Z,24.75
2019-02-08T01:34:42.359Z,24.47
2019-02-08T01:35:46.336Z,22.73
2019-02-08T01:36:50.542Z,23.55
2019-02-08T01:37:55.837Z,27.98
2019-02-08T01:38:59.751Z,26.20
2019-02-08T01:40:05.327Z,28.02
2019-02-08T01:41:09.793Z,28.12
2019-02-08T01:42:13.690Z,25.40
2019-02-08T01:43:18.071Z,26.95
2019-02-08T01:44:22.293Z,27.20
2019-02-08T01:45:27.858Z,28.02
2019-02-08T01:46:32.083Z,23.60
2019-02-08T01:47:36.051Z,25.25
2019-02-08T01:48:39.959Z,25.00
2019-02-08T01:49:43.859Z,26.52
2019-02-08T01:50:48.080Z,25.90
2019-02-08T01:51:52.218Z,25.05
2019-02-08T01:52:56.425Z,22.32
2019-02-08T01:54:00.518Z,24.50
2019-02-08T01:55:05.309Z,22.45
2019-02-08T01:56:09.520Z,23.52
2019-02-08T01:57:13.657Z,25.95
2019-02-08T01:58:17.638Z,25.05
2019-02-08T01:59:22.047Z,27.98
2019-02-08T02:00:35.162Z,29.20
2019-02-08T02:01:39.393Z,27.37
2019-02-08T02:02:43.609Z,26.20
2019-02-08T02:03:47.835Z,27.07
2019-02-08T02:04:51.806Z,23.05
2019-02-08T02:05:56.029Z,23.87
2019-02-08T02:06:59.855Z,24.43
2019-02-08T02:08:04.770Z,24.55
2019-02-08T02:09:09.216Z,24.20
2019-02-08T02:10:20.542Z,23.10
2019-02-08T02:11:24.442Z,24.37
2019-02-08T02:12:28.519Z,21.20
2019-02-08T02:13:32.475Z,21.90
2019-02-08T02:14:36.694Z,20.45
2019-02-08T02:15:40.867Z,22.45
2019-02-08T02:16:44.768Z,20.90
2019-02-08T02:17:48.741Z,20.72
2019-02-08T02:18:52.727Z,20.90
2019-02-08T02:19:56.942Z,14.90
2019-02-08T02:21:00.775Z,16.12
2019-02-08T02:22:04.868Z,17.32
2019-02-08T02:23:10.250Z,16.25
2019-02-08T02:24:14.486Z,12.85
2019-02-08T02:25:18.980Z,14.33
2019-02-08T02:26:22.747Z,13.43
2019-02-08T02:27:26.650Z,14.47
2019-02-08T02:28:30.864Z,13.08
2019-02-08T02:29:34.776Z,13.88
2019-02-08T02:30:38.750Z,11.83
2019-02-08T02:31:42.968Z,12.90
2019-02-08T02:32:47.175Z,14.78
2019-02-08T02:33:51.393Z,15.23
2019-02-08T02:34:55.617Z,16.23
2019-02-08T02:35:59.588Z,14.68
2019-02-08T02:37:03.946Z,15.70
2019-02-08T02:38:08.044Z,16.37
2019-02-08T02:39:12.029Z,14.78
2019-02-08T02:40:16.460Z,14.50
2019-02-08T02:41:20.602Z,14.85
2019-02-08T02:42:25.066Z,18.23
2019-02-08T02:43:29.131Z,17.17
2019-02-08T02:44:33.289Z,17.50
2019-02-08T02:45:38.356Z,14.20
2019-02-08T02:46:42.438Z,16.30
2019-02-08T02:47:46.337Z,14.00
2019-02-08T02:48:50.319Z,12.53
2019-02-08T02:49:54.798Z,14.03
2019-02-08T02:50:58.763Z,15.32
2019-02-08T02:52:02.739Z,14.00
2019-02-08T02:53:07.065Z,14.45
2019-02-08T02:54:11.202Z,14.00
2019-02-08T02:55:15.978Z,16.15
2019-02-08T02:56:19.877Z,17.57
2019-02-08T02:57:23.775Z,17.73
2019-02-08T02:58:27.748Z,20.02
2019-02-08T02:59:32.543Z,20.15
2019-02-08T03:00:39.325Z,19.75
2019-02-08T03:01:43.641Z,20.12
2019-02-08T03:02:47.617Z,18.45
2019-02-08T03:03:51.587Z,19.02
2019-02-08T03:04:55.417Z,20.32
2019-02-08T03:05:59.309Z,19.32
2019-02-08T03:07:03.288Z,20.90
2019-02-08T03:08:09.518Z,19.48
2019-02-08T03:09:32.614Z,21.87
2019-02-08T03:12:06.795Z,23.32
2019-02-08T03:13:50.259Z,24.10
2019-02-08T03:15:13.573Z,21.77
2019-02-08T03:16:18.085Z,19.40
2019-02-08T03:17:22.294Z,22.30
2019-02-08T03:18:26.266Z,21.77
2019-02-08T03:19:30.485Z,19.52
2019-02-08T03:20:34.500Z,21.33
2019-02-08T03:21:38.495Z,19.77
2019-02-08T03:22:42.971Z,23.52
2019-02-08T03:23:47.105Z,23.87
2019-02-08T03:24:51.338Z,22.22
2019-02-08T03:25:55.237Z,20.60
2019-02-08T03:26:59.406Z,23.12
2019-02-08T03:28:03.645Z,22.62
2019-02-08T03:29:07.858Z,21.97
2019-02-08T03:30:14.586Z,23.65
2019-02-08T03:31:18.463Z,21.65
2019-02-08T03:32:22.925Z,22.25
2019-02-08T03:33:27.250Z,22.58
2019-02-08T03:34:31.261Z,23.92
2019-02-08T03:35:35.503Z,23.57
2019-02-08T03:36:39.477Z,23.50
2019-02-08T03:37:43.442Z,23.30
2019-02-08T03:38:47.416Z,22.07
2019-02-08T03:39:51.630Z,21.12
2019-02-08T03:40:55.541Z,22.35
2019-02-08T03:41:59.505Z,22.52
2019-02-08T03:43:03.479Z,21.75
2019-02-08T03:44:07.452Z,24.65
2019-02-08T03:45:11.584Z,20.55
2019-02-08T03:46:15.796Z,23.30
2019-02-08T03:47:19.689Z,22.52
2019-02-08T03:48:23.680Z,19.55
2019-02-08T03:49:27.806Z,24.47
2019-02-08T03:50:32.033Z,21.05
2019-02-08T03:51:36.246Z,23.47
2019-02-08T03:52:40.485Z,23.12
2019-02-08T03:53:44.463Z,22.73
2019-02-08T03:54:49.638Z,23.50
2019-02-08T03:55:58.299Z,20.08
2019-02-08T03:56:59.467Z,21.82
2019-02-08T03:58:03.906Z,23.35
2019-02-08T03:59:08.123Z,23.32
2019-02-08T04:00:15.655Z,18.30
2019-02-08T04:01:19.643Z,14.87
2019-02-08T04:02:23.539Z,18.00
2019-02-08T04:03:27.749Z,17.52
2019-02-08T04:04:32.084Z,17.85
2019-02-08T04:05:36.314Z,19.40
2019-02-08T04:06:40.729Z,18.65
2019-02-08T04:07:44.699Z,16.75
2019-02-08T04:08:49.167Z,17.60
2019-02-08T04:09:53.305Z,17.52
2019-02-08T04:10:57.536Z,17.35
2019-02-08T04:12:01.506Z,18.10
2019-02-08T04:13:05.476Z,16.35
2019-02-08T04:14:09.445Z,18.15
2019-02-08T04:15:16.117Z,18.60
2019-02-08T04:16:20.098Z,19.87
2019-02-08T04:17:24.071Z,20.08
2019-02-08T04:18:27.966Z,19.75
2019-02-08T04:19:32.176Z,19.25
2019-02-08T04:20:36.401Z,16.77
2019-02-08T04:21:40.372Z,16.50
2019-02-08T04:22:44.459Z,18.37
2019-02-08T04:23:48.349Z,16.73
2019-02-08T04:24:52.240Z,12.90
2019-02-08T04:25:56.228Z,11.22
2019-02-08T04:27:00.443Z,10.53
2019-02-08T04:28:04.933Z,8.25
2019-02-08T04:29:09.003Z,9.10
2019-02-08T04:30:19.620Z,8.80
2019-02-08T04:31:23.700Z,9.18
2019-02-08T04:32:28.021Z,7.58
2019-02-08T04:33:32.085Z,7.50
2019-02-08T04:34:36.053Z,6.97
2019-02-08T04:35:40.515Z,6.35
2019-02-08T04:36:44.928Z,4.78
2019-02-08T04:37:49.052Z,5.15
2019-02-08T04:38:53.017Z,7.92
2019-02-08T04:39:56.918Z,10.32
2019-02-08T04:41:01.067Z,10.13
2019-02-08T04:42:05.273Z,4.40
2019-02-08T04:43:09.833Z,4.30
2019-02-08T04:44:13.728Z,3.85
2019-02-08T04:45:18.158Z,4.25
2019-02-08T04:46:22.316Z,4.28
2019-02-08T04:47:26.451Z,6.70
2019-02-08T04:48:30.546Z,10.18
2019-02-08T04:49:34.519Z,14.63
2019-02-08T04:50:38.590Z,8.03
2019-02-08T04:51:42.662Z,6.72
2019-02-08T04:52:46.826Z,7.62
2019-02-08T04:53:50.993Z,6.05
2019-02-08T04:54:54.956Z,5.37
2019-02-08T04:55:59.098Z,5.08
2019-02-08T04:57:03.062Z,5.40
2019-02-08T04:58:07.277Z,5.00
2019-02-08T04:59:11.731Z,4.40
2019-02-08T05:00:25.158Z,4.90
2019-02-08T05:01:29.384Z,4.17
2019-02-08T05:02:33.354Z,4.20
2019-02-08T05:03:37.832Z,4.12
2019-02-08T05:04:41.965Z,4.45
2019-02-08T05:05:46.176Z,4.80
2019-02-08T05:06:50.327Z,4.58
2019-02-08T05:07:54.546Z,4.80
2019-02-08T05:08:58.747Z,4.58
2019-02-08T05:10:02.712Z,5.65
2019-02-08T05:11:06.604Z,5.05
2019-02-08T05:12:10.749Z,5.60
2019-02-08T05:13:15.457Z,5.22
2019-02-08T05:14:19.662Z,5.45
2019-02-08T05:15:23.732Z,4.95
2019-02-08T05:16:27.947Z,5.30
2019-02-08T05:17:32.088Z,5.40
2019-02-08T05:18:36.225Z,5.72
2019-02-08T05:19:40.435Z,5.17
2019-02-08T05:20:44.570Z,4.90
2019-02-08T05:21:48.697Z,4.60
2019-02-08T05:22:53.120Z,4.65
2019-02-08T05:23:57.014Z,5.20
2019-02-08T05:25:00.988Z,5.10
2019-02-08T05:26:05.208Z,5.28
2019-02-08T05:27:09.420Z,5.08
2019-02-08T05:28:13.580Z,5.22
2019-02-08T05:29:17.544Z,5.40
2019-02-08T05:30:23.846Z,5.20
2019-02-08T05:31:27.738Z,5.00
2019-02-08T05:32:31.962Z,4.75
2019-02-08T05:33:36.031Z,5.42
2019-02-08T05:34:40.081Z,5.70
2019-02-08T05:35:43.976Z,5.17
2019-02-08T05:36:48.117Z,5.75
2019-02-08T05:37:52.458Z,5.42
2019-02-08T05:38:56.593Z,5.25
2019-02-08T05:40:00.738Z,5.22
2019-02-08T05:41:04.949Z,5.70
2019-02-08T05:42:08.847Z,5.92
2019-02-08T05:43:12.830Z,5.33
2019-02-08T05:44:16.971Z,5.25
2019-02-08T05:45:21.384Z,5.28
2019-02-08T05:46:25.277Z,5.45
2019-02-08T05:47:29.346Z,5.15
2019-02-08T05:48:33.334Z,5.92
2019-02-08T05:49:37.298Z,5.70
2019-02-08T05:50:41.506Z,5.30
2019-02-08T05:51:45.652Z,5.40
2019-02-08T05:52:50.099Z,5.25
2019-02-08T05:53:54.459Z,4.80
2019-02-08T05:54:58.429Z,4.92
2019-02-08T05:56:02.327Z,4.92
2019-02-08T05:57:06.387Z,4.92
2019-02-08T05:58:10.612Z,5.28
2019-02-08T05:59:14.822Z,5.25
2019-02-08T06:00:48.881Z,5.62
2019-02-08T06:01:52.897Z,5.05
2019-02-08T06:02:56.943Z,6.55
2019-02-08T06:04:01.114Z,6.33
2019-02-08T06:05:06.296Z,6.67
2019-02-08T06:06:10.504Z,5.50
2019-02-08T06:07:14.729Z,5.90
2019-02-08T06:08:19.154Z,6.60
2019-02-08T06:09:23.137Z,5.37
2019-02-08T06:10:27.360Z,10.28
2019-02-08T06:11:33.042Z,16.60
2019-02-08T06:12:37.099Z,6.85
2019-02-08T06:13:41.176Z,7.12
2019-02-08T06:14:45.146Z,5.92
2019-02-08T06:15:49.302Z,5.30
2019-02-08T06:16:53.250Z,5.60
2019-02-08T06:17:57.458Z,6.00
2019-02-08T06:19:01.683Z,7.92
2019-02-08T06:20:07.250Z,6.33
2019-02-08T06:21:11.468Z,6.28
2019-02-08T06:22:15.291Z,8.63
2019-02-08T06:23:19.272Z,5.70
2019-02-08T06:24:23.421Z,7.75
2019-02-08T06:25:28.307Z,6.20
2019-02-08T06:26:32.497Z,6.75
2019-02-08T06:27:36.714Z,5.42
2019-02-08T06:28:40.626Z,5.20
2019-02-08T06:29:44.839Z,5.28
2019-02-08T06:30:49.049Z,4.97
2019-02-08T06:31:53.008Z,4.45
2019-02-08T06:32:56.985Z,5.45
2019-02-08T06:34:01.520Z,6.05
2019-02-08T06:35:06.484Z,6.62
2019-02-08T06:36:10.453Z,5.42
2019-02-08T06:37:14.800Z,6.62
2019-02-08T06:38:18.780Z,6.10
2019-02-08T06:39:22.746Z,5.92
2019-02-08T06:40:26.862Z,4.53
2019-02-08T06:41:30.830Z,6.50
2019-02-08T06:42:34.798Z,6.10
2019-02-08T06:43:38.939Z,6.22
2019-02-08T06:44:42.841Z,5.25
2019-02-08T06:45:47.060Z,5.75
2019-02-08T06:46:51.197Z,6.60
2019-02-08T06:47:55.519Z,4.40
2019-02-08T06:48:59.757Z,6.10
2019-02-08T06:50:04.889Z,5.30
2019-02-08T06:51:08.788Z,27.87
2019-02-08T06:52:13.003Z,18.30
2019-02-08T06:53:17.266Z,8.85
2019-02-08T06:54:21.177Z,9.30
2019-02-08T06:55:25.147Z,5.47
2019-02-08T06:56:46.858Z,6.58
2019-02-08T06:57:59.849Z,5.45
2019-02-08T06:59:20.225Z,4.70
2019-02-08T07:00:46.464Z,4.22
2019-02-08T07:02:12.420Z,4.28
2019-02-08T07:03:28.240Z,4.60
2019-02-08T07:05:00.353Z,4.50
2019-02-08T07:06:23.520Z,4.17
2019-02-08T07:07:36.288Z,4.47
2019-02-08T07:08:59.502Z,4.28
2019-02-08T07:10:10.726Z,5.20
2019-02-08T07:11:23.613Z,4.08
2019-02-08T07:12:45.203Z,4.12
2019-02-08T07:14:03.144Z,4.22
2019-02-08T07:15:44.980Z,4.37
2019-02-08T07:17:10.469Z,4.20
2019-02-08T07:18:39.119Z,3.75
2019-02-08T07:19:55.081Z,3.85
2019-02-08T07:21:20.812Z,4.00
2019-02-08T07:22:49.289Z,4.20
2019-02-08T07:24:04.506Z,3.75
2019-02-08T07:25:21.460Z,3.70
2019-02-08T07:26:33.106Z,4.20
2019-02-08T07:27:58.887Z,3.70
2019-02-08T07:29:38.721Z,4.00
2019-02-08T07:31:07.473Z,3.50
2019-02-08T07:32:25.805Z,3.35
2019-02-08T07:33:36.107Z,3.55
2019-02-08T07:35:17.335Z,3.10
2019-02-08T07:36:49.244Z,3.50
2019-02-08T07:38:00.283Z,3.40
2019-02-08T07:39:26.104Z,3.40
2019-02-08T07:40:53.772Z,5.15
2019-02-08T07:42:16.388Z,5.00
2019-02-08T07:43:47.348Z,4.92
2019-02-08T07:45:23.043Z,3.55
2019-02-08T07:46:38.176Z,3.62
2019-02-08T07:48:04.356Z,3.17
2019-02-08T07:49:13.551Z,3.62
2019-02-08T07:50:40.141Z,3.60
2019-02-08T07:52:01.629Z,4.33
2019-02-08T07:53:32.201Z,3.80
2019-02-08T07:54:53.798Z,3.22
2019-02-08T07:56:07.863Z,7.33
2019-02-08T07:57:33.689Z,3.62
2019-02-08T07:58:49.760Z,3.62
2019-02-08T08:00:15.837Z,4.12
2019-02-08T08:01:36.177Z,4.42
2019-02-08T08:03:05.682Z,4.85
2019-02-08T08:04:33.038Z,3.90
2019-02-08T08:05:55.869Z,3.42
2019-02-08T08:07:08.609Z,3.50
2019-02-08T08:08:39.135Z,3.20
2019-02-08T08:10:03.046Z,3.15
2019-02-08T08:11:24.833Z,3.37
2019-02-08T08:12:50.356Z,3.87
2019-02-08T08:14:13.488Z,3.08
2019-02-08T08:15:43.862Z,3.10
2019-02-08T08:17:01.173Z,3.00
2019-02-08T08:18:15.865Z,2.80
2019-02-08T08:19:42.649Z,3.33
2019-02-08T08:21:05.993Z,3.00
2019-02-08T08:22:27.181Z,2.80
2019-02-08T08:23:40.644Z,2.92
2019-02-08T08:25:04.170Z,3.20
2019-02-08T08:26:16.134Z,2.83
2019-02-08T08:27:39.632Z,2.80
2019-02-08T08:29:03.276Z,2.85
2019-02-08T08:30:20.299Z,2.65
2019-02-08T08:31:58.417Z,2.60
2019-02-08T08:33:23.693Z,3.05
2019-02-08T08:34:45.744Z,2.50
2019-02-08T08:36:11.882Z,2.42
2019-02-08T08:37:40.421Z,2.30
2019-02-08T08:39:27.244Z,2.70
2019-02-08T08:41:15.945Z,3.17
2019-02-08T08:42:37.665Z,2.40
2019-02-08T08:44:07.720Z,2.72
2019-02-08T08:45:51.006Z,2.35
2019-02-08T08:47:31.073Z,2.35
2019-02-08T08:49:21.020Z,2.70
2019-02-08T08:51:07.990Z,2.70
2019-02-08T08:52:33.943Z,2.47
2019-02-08T08:54:17.621Z,2.67
2019-02-08T08:55:57.115Z,3.22
2019-02-08T08:57:20.619Z,2.30
2019-02-08T08:58:56.238Z,2.37
2019-02-08T09:00:40.442Z,2.15
2019-02-08T09:02:05.305Z,2.83
2019-02-08T09:03:41.205Z,3.50
2019-02-08T09:05:31.474Z,2.83
2019-02-08T09:06:50.452Z,3.00
2019-02-08T09:08:43.227Z,2.27
2019-02-08T09:10:37.217Z,2.40
2019-02-08T09:12:22.319Z,2.75
2019-02-08T09:13:51.272Z,2.60
2019-02-08T09:15:07.212Z,2.50
2019-02-08T09:16:35.129Z,2.27
2019-02-08T09:18:17.384Z,2.27
2019-02-08T09:20:03.345Z,2.35
2019-02-08T09:21:55.733Z,2.42
2019-02-08T09:23:42.195Z,3.05
2019-02-08T09:25:29.018Z,2.20
2019-02-08T09:27:22.943Z,2.12
2019-02-08T09:28:54.244Z,2.12
2019-02-08T09:31:00.262Z,2.30
2019-02-08T09:32:32.592Z,2.50
2019-02-08T09:34:16.164Z,2.02
2019-02-08T09:35:57.520Z,2.10
2019-02-08T09:37:15.324Z,1.75
2019-02-08T09:39:01.049Z,1.70
2019-02-08T09:40:44.246Z,2.08
2019-02-08T09:42:33.866Z,1.90
2019-02-08T09:44:21.488Z,1.90
2019-02-08T09:46:01.120Z,2.02
2019-02-08T09:47:53.773Z,2.08
2019-02-08T09:49:41.329Z,1.60
2019-02-08T09:51:09.293Z,1.95
2019-02-08T09:52:53.282Z,1.65
2019-02-08T09:54:21.804Z,2.20
2019-02-08T09:56:11.829Z,2.00
2019-02-08T09:57:43.178Z,2.40
2019-02-08T09:59:33.505Z,2.17
2019-02-08T10:01:11.599Z,1.77
2019-02-08T10:02:48.765Z,1.80
2019-02-08T10:04:17.260Z,2.50
2019-02-08T10:06:23.173Z,2.17
2019-02-08T10:07:58.281Z,2.05
2019-02-08T10:09:36.966Z,1.98
2019-02-08T10:11:34.423Z,1.87
2019-02-08T10:13:13.925Z,6.35
2019-02-08T10:14:50.517Z,2.70
2019-02-08T10:16:31.032Z,1.90
2019-02-08T10:18:34.581Z,2.42
2019-02-08T10:20:07.944Z,2.22
2019-02-08T10:21:45.361Z,2.25
2019-02-08T10:23:29.080Z,2.00
2019-02-08T10:25:15.737Z,2.12
2019-02-08T10:27:02.593Z,1.70
2019-02-08T10:28:40.728Z,1.60
2019-02-08T10:30:11.573Z,1.57
2019-02-08T10:31:52.425Z,2.00
2019-02-08T10:33:31.879Z,5.15
2019-02-08T10:35:27.414Z,8.20
2019-02-08T10:37:12.863Z,4.00
2019-02-08T10:38:52.499Z,2.00
2019-02-08T10:40:39.661Z,2.10
2019-02-08T10:42:31.164Z,1.80
2019-02-08T10:44:10.677Z,2.42
2019-02-08T10:45:59.294Z,3.05
2019-02-08T10:47:43.405Z,1.72
2019-02-08T10:49:28.925Z,1.90
2019-02-08T10:51:18.502Z,1.90
2019-02-08T10:52:58.546Z,2.22
2019-02-08T10:54:42.045Z,1.37
2019-02-08T10:56:15.293Z,1.50
2019-02-08T10:58:07.056Z,1.35
2019-02-08T10:59:54.361Z,2.15
2019-02-08T11:01:41.520Z,1.70
2019-02-08T11:03:17.929Z,1.67
2019-02-08T11:04:57.508Z,1.70
2019-02-08T11:06:56.326Z,2.90
2019-02-08T11:08:41.120Z,1.60
2019-02-08T11:10:19.917Z,1.95
2019-02-08T11:12:13.794Z,2.20
2019-02-08T11:13:54.548Z,2.10
2019-02-08T11:15:27.211Z,2.08
2019-02-08T11:17:14.016Z,1.60
2019-02-08T11:19:01.452Z,1.22
2019-02-08T11:20:06.858Z,2.12
2019-02-08T11:21:10.817Z,1.42
2019-02-08T11:22:15.040Z,1.77
2019-02-08T11:23:19.269Z,1.77
2019-02-08T11:24:24.773Z,1.57
2019-02-08T11:25:28.741Z,1.50
2019-02-08T11:26:32.728Z,1.50
2019-02-08T11:27:36.867Z,1.30
2019-02-08T11:28:41.064Z,1.50
2019-02-08T11:29:45.064Z,1.70
2019-02-08T11:30:48.883Z,1.80
2019-02-08T11:31:53.113Z,2.05
2019-02-08T11:32:57.172Z,1.80
2019-02-08T11:34:01.143Z,3.72
2019-02-08T11:35:05.974Z,2.47
2019-02-08T11:36:28.392Z,3.27
2019-02-08T11:37:32.380Z,2.90
2019-02-08T11:38:36.618Z,3.35
2019-02-08T11:39:42.025Z,1.77
2019-02-08T11:40:45.999Z,1.98
2019-02-08T11:41:50.543Z,1.47
2019-02-08T11:42:54.770Z,2.12
2019-02-08T11:43:58.737Z,2.20
2019-02-08T11:45:02.874Z,1.77
2019-02-08T11:46:06.841Z,2.17
2019-02-08T11:47:10.827Z,1.90
2019-02-08T11:48:14.796Z,1.75
2019-02-08T11:49:18.764Z,2.42
2019-02-08T11:50:22.748Z,1.72
2019-02-08T11:51:26.569Z,1.50
2019-02-08T11:52:30.793Z,2.08
2019-02-08T11:53:34.752Z,1.80
2019-02-08T11:54:38.970Z,1.20
2019-02-08T11:55:42.790Z,1.75
2019-02-08T11:56:47.001Z,2.22
2019-02-08T11:57:50.915Z,1.65
2019-02-08T11:58:54.814Z,1.85
2019-02-08T11:59:58.706Z,1.70
2019-02-08T12:01:02.681Z,2.40
2019-02-08T12:02:06.677Z,3.00
2019-02-08T12:03:10.737Z,1.55
2019-02-08T12:04:14.946Z,2.30
2019-02-08T12:05:19.161Z,2.00
2019-02-08T12:06:24.081Z,2.10
2019-02-08T12:07:28.031Z,1.90
2019-02-08T12:08:32.493Z,1.82
2019-02-08T12:09:36.478Z,2.10
2019-02-08T12:10:40.687Z,1.90
2019-02-08T12:11:44.918Z,2.37
2019-02-08T12:12:48.825Z,2.00
2019-02-08T12:13:52.966Z,1.95
2019-02-08T12:14:57.226Z,1.77
2019-02-08T12:16:01.709Z,1.90
2019-02-08T12:17:05.671Z,2.40
2019-02-08T12:18:09.894Z,1.80
2019-02-08T12:19:14.109Z,2.40
2019-02-08T12:20:18.421Z,1.62
2019-02-08T12:21:22.623Z,2.50
2019-02-08T12:22:26.588Z,2.40
2019-02-08T12:23:30.835Z,2.60
2019-02-08T12:24:35.550Z,2.60
2019-02-08T12:25:39.764Z,2.20
2019-02-08T12:26:43.985Z,2.25
2019-02-08T12:27:47.962Z,1.70
2019-02-08T12:28:52.036Z,1.95
2019-02-08T12:29:55.926Z,2.33
2019-02-08T12:31:00.137Z,1.85
2019-02-08T12:32:04.477Z,2.05
2019-02-08T12:33:08.438Z,1.75
2019-02-08T12:34:12.684Z,1.75
2019-02-08T12:35:16.888Z,2.50
2019-02-08T12:36:21.277Z,2.52
2019-02-08T12:37:25.246Z,2.90
2019-02-08T12:38:29.421Z,3.45
2019-02-08T12:39:33.621Z,3.08
2019-02-08T12:40:37.836Z,2.17
2019-02-08T12:41:42.490Z,2.42
2019-02-08T12:42:46.963Z,1.77
2019-02-08T12:43:51.195Z,1.85
2019-02-08T12:44:55.329Z,3.40
2019-02-08T12:45:59.717Z,3.12
2019-02-08T12:47:03.870Z,2.85
2019-02-08T12:48:07.838Z,4.17
2019-02-08T12:49:11.752Z,2.98
2019-02-08T12:50:16.380Z,1.92
2019-02-08T12:51:20.276Z,1.35
2019-02-08T12:52:24.416Z,2.00
2019-02-08T12:53:28.626Z,3.02
2019-02-08T12:54:32.608Z,2.47
2019-02-08T12:55:36.845Z,1.72
2019-02-08T12:56:45.411Z,7.25
2019-02-08T12:57:46.654Z,8.23
2019-02-08T12:58:50.485Z,3.62
2019-02-08T12:59:54.721Z,2.08
2019-02-08T13:00:58.929Z,1.80
2019-02-08T13:02:02.821Z,2.17
2019-02-08T13:03:06.802Z,2.22
2019-02-08T13:04:10.775Z,2.72
2019-02-08T13:05:15.067Z,1.92
2019-02-08T13:06:19.209Z,1.92
2019-02-08T13:07:23.683Z,1.80
2019-02-08T13:08:27.889Z,1.50
2019-02-08T13:09:31.861Z,1.20
2019-02-08T13:10:35.841Z,2.30
2019-02-08T13:11:40.441Z,1.45
2019-02-08T13:12:44.409Z,1.98
2019-02-08T13:13:48.229Z,1.80
2019-02-08T13:14:52.141Z,1.70
2019-02-08T13:15:56.358Z,1.35
2019-02-08T13:17:00.256Z,1.35
2019-02-08T13:18:04.226Z,1.55
2019-02-08T13:19:08.538Z,1.80
2019-02-08T13:20:14.776Z,1.50
2019-02-08T13:21:18.909Z,1.90
2019-02-08T13:22:23.296Z,2.33
2019-02-08T13:23:27.201Z,2.00
2019-02-08T13:24:31.170Z,2.35
2019-02-08T13:25:35.149Z,1.92
2019-02-08T13:26:39.117Z,2.40
2019-02-08T13:27:43.187Z,2.98
2019-02-08T13:29:06.376Z,1.92
2019-02-08T13:30:52.731Z,2.00
2019-02-08T13:33:58.393Z,1.80
2019-02-08T13:35:21.867Z,1.80
2019-02-08T13:36:45.510Z,3.30
2019-02-08T13:37:49.738Z,7.50
2019-02-08T13:38:53.879Z,4.58
2019-02-08T13:39:58.038Z,4.53
2019-02-08T13:41:02.096Z,2.30
2019-02-08T13:42:06.154Z,2.05
2019-02-08T13:43:09.964Z,1.95
2019-02-08T13:44:13.785Z,1.70
2019-02-08T13:45:17.865Z,1.85
2019-02-08T13:46:22.000Z,2.30
2019-02-08T13:47:26.201Z,2.60
2019-02-08T13:48:30.415Z,1.90
2019-02-08T13:49:34.257Z,1.80
2019-02-08T13:50:38.398Z,2.77
2019-02-08T13:51:42.533Z,2.40
2019-02-08T13:52:46.746Z,2.17
2019-02-08T13:53:50.636Z,2.60
2019-02-08T13:54:54.845Z,2.17
2019-02-08T13:55:59.006Z,3.22
2019-02-08T13:57:03.851Z,2.70
2019-02-08T13:58:08.056Z,2.10
2019-02-08T13:59:12.271Z,2.50
2019-02-08T14:00:22.350Z,2.60
2019-02-08T14:01:26.342Z,2.15
2019-02-08T14:02:30.160Z,2.20
2019-02-08T14:03:34.128Z,2.15
2019-02-08T14:04:38.256Z,2.17
2019-02-08T14:05:42.246Z,2.40
2019-02-08T14:06:46.722Z,2.95
2019-02-08T14:07:50.932Z,2.42
2019-02-08T14:08:55.074Z,2.20
2019-02-08T14:09:59.289Z,1.70
2019-02-08T14:11:03.146Z,2.10
2019-02-08T14:12:07.361Z,1.87
2019-02-08T14:13:11.571Z,2.10
2019-02-08T14:14:15.465Z,1.80
2019-02-08T14:15:21.162Z,1.70
2019-02-08T14:16:25.148Z,2.50
2019-02-08T14:17:29.533Z,2.35
2019-02-08T14:18:33.673Z,2.40
2019-02-08T14:19:37.820Z,2.47
2019-02-08T14:20:42.352Z,2.10
2019-02-08T14:21:46.259Z,2.30
2019-02-08T14:22:50.464Z,2.20
2019-02-08T14:23:54.711Z,1.98
2019-02-08T14:24:59.478Z,1.98
2019-02-08T14:26:04.126Z,2.40
2019-02-08T14:27:08.876Z,2.20
2019-02-08T14:28:13.408Z,1.87
2019-02-08T14:29:17.593Z,2.60
2019-02-08T14:30:33.324Z,1.98
2019-02-08T14:31:37.882Z,2.58
2019-02-08T14:32:42.089Z,2.62
2019-02-08T14:33:45.929Z,3.60
2019-02-08T14:34:50.144Z,4.22
2019-02-08T14:35:55.856Z,3.87
2019-02-08T14:37:00.095Z,2.83
2019-02-08T14:38:06.804Z,2.25
2019-02-08T14:39:11.932Z,2.33
2019-02-08T14:40:18.274Z,2.35
2019-02-08T14:41:22.337Z,2.30
2019-02-08T14:42:26.165Z,1.80
2019-02-08T14:43:30.232Z,1.77
2019-02-08T14:44:34.372Z,2.10
2019-02-08T14:45:38.353Z,1.90
2019-02-08T14:46:42.571Z,2.00
2019-02-08T14:47:46.562Z,2.52
2019-02-08T14:48:50.777Z,2.02
2019-02-08T14:49:54.990Z,2.22
2019-02-08T14:50:58.886Z,1.62
2019-02-08T14:52:02.874Z,1.45
2019-02-08T14:53:07.220Z,1.25
2019-02-08T14:54:11.489Z,1.57
2019-02-08T14:55:16.483Z,1.80
2019-02-08T14:56:20.526Z,1.57
2019-02-08T14:57:24.749Z,1.45
2019-02-08T14:58:28.716Z,1.42
2019-02-08T14:59:32.777Z,1.30
2019-02-08T15:00:37.237Z,1.92
2019-02-08T15:01:41.376Z,1.82
2019-02-08T15:02:45.357Z,1.65
2019-02-08T15:03:49.751Z,2.08
2019-02-08T15:04:53.874Z,3.30
2019-02-08T15:05:58.085Z,1.90
2019-02-08T15:07:02.570Z,2.65
2019-02-08T15:08:06.817Z,2.08
2019-02-08T15:09:11.489Z,1.40
2019-02-08T15:10:18.746Z,1.90
2019-02-08T15:11:23.210Z,1.80
2019-02-08T15:12:27.440Z,1.50
2019-02-08T15:13:31.683Z,1.47
2019-02-08T15:14:35.897Z,1.70
2019-02-08T15:15:40.210Z,1.92
2019-02-08T15:16:44.421Z,1.60
2019-02-08T15:17:48.892Z,1.42
2019-02-08T15:18:52.713Z,1.00
2019-02-08T15:19:57.977Z,1.32
2019-02-08T15:21:02.156Z,1.25
2019-02-08T15:22:06.626Z,1.90
2019-02-08T15:23:10.874Z,2.62
2019-02-08T15:24:14.782Z,2.20
2019-02-08T15:25:19.540Z,1.60
2019-02-08T15:26:23.511Z,1.72
2019-02-08T15:27:27.477Z,3.77
2019-02-08T15:28:31.387Z,1.85
2019-02-08T15:29:35.619Z,1.35
2019-02-08T15:30:40.085Z,1.55
2019-02-08T15:31:44.142Z,1.30
2019-02-08T15:32:48.112Z,1.30
2019-02-08T15:33:52.262Z,1.00
2019-02-08T15:34:56.163Z,1.30
2019-02-08T15:36:00.125Z,1.27